CheckWX is a tool to help pilots better visualize weather data.  It is not intended as a substitute for an official pre-flight weather briefing.

06:51:53 UTC

KJHW TAF
Chautauqua County / Jamestown Airport
Jamestown, New York, USA
KJHW 230528Z 2306/2406 22008KT P6SM SKC WS020/26035KT FM231100 20009KT P6SM FEW250 FM231600 21010G20KT P6SM FEW250 FM240300 20012G23KT P6SM SCT120

Feb-23@
06:00 UTC

Feb-23 @ 06:00 UTC

Feb-23@
11:00 UTC

Feb-23 @ 11:00 UTC

KJHW 230528Z 2306/2406 22008KT P6SM SKC WS020/26035KT
Wind
  • 220° at 8 KTS
Cloud Levels
  • Clear skies

Feb-23@
11:00 UTC

Feb-23 @ 11:00 UTC

Feb-23@
16:00 UTC

Feb-23 @ 16:00 UTC

FM231100 20009KT P6SM FEW250

From

From Standard forecast or significant change

Wind
  • 200° at 9 KTS
Cloud Levels
  • Few at 25,000' AGL

Feb-23@
16:00 UTC

Feb-23 @ 16:00 UTC

Feb-24@
03:00 UTC

Feb-24 @ 03:00 UTC

FM231600 21010G20KT P6SM FEW250

From

From Standard forecast or significant change

Wind
  • 210° at 10 KTS
  • {Gusting to 20 KTS
Cloud Levels
  • Few at 25,000' AGL

Feb-24@
03:00 UTC

Feb-24 @ 03:00 UTC

Feb-24@
06:00 UTC

Feb-24 @ 06:00 UTC

FM240300 20012G23KT P6SM SCT120

From

From Standard forecast or significant change

Wind
  • 200° at 12 KTS
  • {Gusting to 23 KTS
Cloud Levels
  • Scattered at 12,000' AGL